Portada
METAR-TAF:

METAR-TAF

Aeroports :

Jayapura, Indonèsia

latitud: 02-34-37S, longitud: 140-30-58E, altitud: 88 m

Observació

L'informe es va fer fa 24 minuts, a les 09:00 UTC
Vent 9 kt del Oest/Nord-Oest
Temperatura 28°C
Humitat 74%
Pressió 1008 hPa
Visibilitat 10 km o més
Escasses núvols a una alçada de 1300 ft

METAR: WAJJ 080900Z 29009KT 9999 FEW013 28/23 Q1008 NOSIG

Hora: 16:24 (09:24 UTC)


TAF: manca

Observacions i pronòstics meteorològics de més de 4000 aeroports (METAR i TAF).

Les estacions disponibles són els punts grocs i vermells al mapa.

Posi el ratolí al punt desitjat per veure el nom de l'estació.

Feu clic per veure les observacions i els pronòstics meteorològics.

Per canviar el mapa: feu clic els botons verds amb una creu de color negre per apropar; al botó verd amb un guió per allunyar la imatge; o en les fletxes verdes per a mapes adjacents.


METAR-TAF: